Hoppa till innehåll

METAR väder och rapporter - ESGG

Nedan listas information från vald flygplats. Andra METARs finns längre ned på sidan. Kontakta oss om någon saknas eller skriv in egen ICAO-kod.

Andra intressanta METARs

Klicka på önskad rubrik nedan för att visa nuvarande väder för den platsen.

Avstånd från stationen: NO 27kmESGG - Göteborg (Landvetter)
Uppdaterad: 2022-05-17 16:50
 Vind från NO
Vind: NO 15 km/h
Temperatur: 18°C
Daggpunkt: -4°C
Luftfuktighet: 22%
Barometer: 1024 hPa
Summering: Klart
Sikt: mer än 10 km
2022/05/17 14:50 ESGG 171450Z 04008KT 350V120 CAVOK 18/M04 Q1024
Klart
Klart
  Visa detaljer för Göteborg (Landvetter)
Avstånd från stationen: N 28kmESGP - Göteborg (Säve)
Uppdaterad: 2022-05-17 16:50
 Vind från NNO
Vind: NNO 17 km/h
Temperatur: 18°C
Daggpunkt: -4°C
Luftfuktighet: 22%
Barometer: 1024 hPa
Summering: Klart
Sikt: mer än 10 km
2022/05/17 14:50 ESGP 171450Z 02009KT CAVOK 18/M04 Q1024
Klart
Klart
  Visa detaljer för Göteborg (Säve)
Avstånd från stationen: NO 419kmESSA - Stockholm (Arlanda)
Uppdaterad: 2022-05-17 16:50
 Vind från N
Vind: N 15 km/h
Temperatur: 11°C
Daggpunkt: -2°C
Luftfuktighet: 41%
Barometer: 1026 hPa
Summering: Klart
Sikt: mer än 10 km
2022/05/17 14:50 ESSA 171450Z 36008KT 340V040 CAVOK 11/M02 Q1026 NOSIG
Klart
Klart
  Visa detaljer för Stockholm (Arlanda)
Avstånd från stationen: ONO 404kmESSB - Stockholm (Bromma)
Uppdaterad: 2022-05-17 16:50
 Vind från N
Vind: N 9 km/h
Temperatur: 12°C
Daggpunkt: -2°C
Luftfuktighet: 38%
Barometer: 1026 hPa
Summering: Klart
Sikt: mer än 10 km
2022/05/17 14:50 ESSB 171450Z 36005KT 310V080 CAVOK 12/M02 Q1026
Klart
Klart
  Visa detaljer för Stockholm (Bromma)
Avstånd från stationen: ONO 323kmESKN - Stockholm (Skavsta)
Uppdaterad: 2022-05-17 16:50
 Vind från NNV
Vind: NNV 11 km/h
Temperatur: 14°C
Daggpunkt: -3°C
Luftfuktighet: 31%
Barometer: 1026 hPa
Summering: Klart
Sikt: mer än 10 km
2022/05/17 14:50 ESKN 171450Z 33006KT 260V050 CAVOK 14/M03 Q1026
Klart
Klart
  Visa detaljer för Stockholm (Skavsta)
Avstånd från stationen: SSO 238kmESMS - Malmö flygplats (Sturup)
Uppdaterad: 2022-05-17 16:50
 Vind från OSO
Vind: OSO 13 km/h
Temperatur: 16°C
Daggpunkt: 0°C
Luftfuktighet: 34%
Barometer: 1024 hPa
Summering: Klart
Sikt: mer än 10 km
2022/05/17 14:50 ESMS 171450Z 11007KT 090V150 CAVOK 16/M00 Q1024
Klart
Klart
  Visa detaljer för Malmö flygplats (Sturup)
Avstånd från stationen: O 382kmESSV - Visby flygplats
Uppdaterad: 2022-05-17 16:50
 Vind från N
Vind: N 19 km/h
Temperatur: 10°C
Vindavkylning: 7°C
Daggpunkt: 0°C
Luftfuktighet: 50%
Barometer: 1026 hPa
Summering: Klart
Sikt: mer än 10 km
2022/05/17 14:50 ESSV 171450Z 35010KT CAVOK 10/M00 Q1026
Klart
Klart
  Visa detaljer för Visby flygplats
Avstånd från stationen: NNO 92kmESGT - Trollhättan
Uppdaterad: 2022-05-17 16:50
 Vind från NNO
Vind: NNO 15 km/h
Temperatur: 14°C
Daggpunkt: -8°C
Luftfuktighet: 21%
Barometer: 1026 hPa
Summering: Klart
Sikt: mer än 10 km
2022/05/17 14:50 ESGT 171450Z 02008KT CAVOK 14/M08 Q1026
Klart
Klart
  Visa detaljer för Trollhättan
Avstånd från stationen: ONO 129kmESGJ - Jönköpings flygplats
Uppdaterad: 2022-05-17 16:50
 Vind från NNO
Vind: NNO 15 km/h
Temperatur: 14°C
Daggpunkt: -5°C
Luftfuktighet: 27%
Barometer: 1025 hPa
Summering: Klart
Sikt: mer än 10 km
2022/05/17 14:50 ESGJ 171450Z 03008KT 360V060 CAVOK 14/M05 Q1025
Klart
Klart
  Visa detaljer för Jönköpings flygplats
Avstånd från stationen: NNO 229kmESOK - Karlstad
Uppdaterad: 2022-05-17 16:50
 Vind från S
Vind: S 17 km/h
Temperatur: 14°C
Daggpunkt: -3°C
Luftfuktighet: 31%
Barometer: 1025 hPa
Moln: Klart
Sikt: 10 km
2022/05/17 14:50 ESOK 171450Z AUTO 19009KT 9999 NCD 14/M03 Q1025
Klart
Klart
  Visa detaljer för Karlstad
Avstånd från stationen: N 643kmESNZ - Östersund (Frösön)
Uppdaterad: 2022-05-17 16:50
 Vind från NO
Vind: NO 6 km/h
Temperatur: 12°C
Daggpunkt: -6°C
Luftfuktighet: 28%
Barometer: 1023 hPa
Summering: Klart
Sikt: mer än 10 km
2022/05/17 14:50 ESNZ 171450Z 04003KT 310V090 CAVOK 12/M06 Q1023
Klart
Klart
  Visa detaljer för Östersund (Frösön)
Avstånd från stationen: SSO 216kmEKCH - Köpenhamn (Kastrup)
Uppdaterad: 2022-05-17 16:50
 Vind från SO
Vind: SO 20 km/h
Temperatur: 17°C
Daggpunkt: 3°C
Luftfuktighet: 39%
Barometer: 1024 hPa
Moln: Klart
Sikt: 10 km
2022/05/17 14:50 EKCH 171450Z AUTO 14011KT 9999 NCD 17/03 Q1024 NOSIG
Klart
Klart
  Visa detaljer för Köpenhamn (Kastrup)
Avstånd från stationen: SV 263kmEKBI - Billund Airport
Uppdaterad: 2022-05-17 16:50
 Vind från O
Vind: O 20 km/h
Temperatur: 18°C
Daggpunkt: 7°C
Luftfuktighet: 49%
Barometer: 1022 hPa
Moln: Klart
Sikt: 10 km
2022/05/17 14:50 EKBI 171450Z AUTO 09011KT 060V140 9999 NCD 18/07 Q1022
Klart
Klart
  Visa detaljer för Billund Airport
Avstånd från stationen: N 302kmENGM - Oslo (Gardermoen)
Uppdaterad: 2022-05-17 16:50
 Vind från SSO
Vind: SSO 13 km/h
Temperatur: 17°C
Daggpunkt: -2°C
Luftfuktighet: 27%
Barometer: 1024 hPa
Summering: Klart
Sikt: mer än 10 km
2022/05/17 14:50 ENGM 171450Z 16007KT 130V230 CAVOK 17/M02 Q1024 NOSIG
Klart
Klart
  Visa detaljer för Oslo (Gardermoen)
Avstånd från stationen: NO 540kmEFMA - Mariehamn / Åland
Uppdaterad: 2022-05-17 16:50
 Vind från NNV
Vind: NNV 22 km/h
Temperatur: 7°C
Vindavkylning: 4°C
Daggpunkt: 0°C
Luftfuktighet: 61%
Barometer: 1026 hPa
Summering: Klart
Sikt: mer än 10 km
2022/05/17 14:50 EFMA 171450Z AUTO 34012KT 320V030 CAVOK 07/00 Q1026
Klart
Klart
  Visa detaljer för Mariehamn / Åland
Avstånd från stationen: S 558kmEDDT - Berlin (Tegel), Germany
Uppdaterad: 2020-11-09 07:50
Ej aktuell
 Vind från O
Vind: O 11 km/h
Temperatur: 6°C
Vindavkylning: 4°C
Daggpunkt: 5°C
Luftfuktighet: 93%
Barometer: 1027 hPa
Summering: Dimmigt
Moln: Genommulet
Sikt: 3 km
Molninformation: Genommulet 91 m
2020/11/09 06:50 EDDT 090650Z 09006KT 050V120 3000 BR OVC003 06/05 Q1027
Dimmigt, Genommulet
Dimmigt
Genommulet
  Visa detaljer för Berlin (Tegel), Germany
Avstånd från stationen: SV 737kmEHAM - Amsterdam (Schiphol)
Uppdaterad: 2022-05-17 16:55
 Vind från NO
Vind: NO 15 km/h
Temperatur: 24°C
Daggpunkt: 15°C
Luftfuktighet: 57%
Barometer: 1018 hPa
Moln: Några få moln
Sikt: 10 km
Molninformation: Några få moln 1219 m
2022/05/17 14:55 EHAM 171455Z 05008KT 010V090 9999 FEW040 24/15 Q1018 NOSIG
Några få moln
Några få moln
  Visa detaljer för Amsterdam (Schiphol)
Avstånd från stationen: ONO 808kmEFHK - Helsingfors (Vantaa)
Uppdaterad: 2022-05-17 16:50
 Vind från NNV
Vind: NNV 20 km/h
Temperatur: 11°C
Daggpunkt: 1°C
Luftfuktighet: 50%
Barometer: 1020 hPa
Moln: Övervägande molnigt
Sikt: 10 km
Molninformation: Övervägande molnigt 1372 m
2022/05/17 14:50 EFHK 171450Z 34011KT 310V010 9999 BKN045 11/01 Q1020 NOSIG
Övervägande molnigt
Övervägande molnigt
  Visa detaljer för Helsingfors (Vantaa)
Avstånd från stationen: SSV 537kmEDDW - Bremen
Uppdaterad: 2022-05-17 16:50
 Vind från V
Vind: V 11 km/h
Temperatur: 24°C
Daggpunkt: 12°C
Luftfuktighet: 47%
Barometer: 1019 hPa
Summering: Klart
Sikt: mer än 10 km
2022/05/17 14:50 EDDW 171450Z AUTO 26006KT 200V300 CAVOK 24/12 Q1019 BECMG 33005KT
Klart
Klart
  Visa detaljer för Bremen
Avstånd från stationen: SSV 861kmEDDF - Frankfurt am Main
Uppdaterad: 2022-05-17 16:50
 Vind från ONO
Vind: ONO 9 km/h
Temperatur: 25°C
Daggpunkt: 10°C
Luftfuktighet: 39%
Barometer: 1020 hPa
Summering: Klart
Sikt: mer än 10 km
2022/05/17 14:50 EDDF 171450Z 07005KT 020V120 CAVOK 25/10 Q1020 NOSIG
Klart
Klart
  Visa detaljer för Frankfurt am Main
Avstånd från stationen: SV 880kmEBBR - Bryssel international
Uppdaterad: 2022-05-17 16:50
 Vind från SV
Vind: SV 17 km/h
Temperatur: 28°C
Daggpunkt: 7°C
Luftfuktighet: 26%
Barometer: 1018 hPa
Summering: Klart
Sikt: mer än 10 km
2022/05/17 14:50 EBBR 171450Z 22009KT 190V250 CAVOK 28/07 Q1018 NOSIG
Klart
Klart
  Visa detaljer för Bryssel international
Avstånd från stationen: SV 738kmEHAM - Amsterdam (Schiphol)
Uppdaterad: 2022-05-17 16:55
 Vind från NO
Vind: NO 15 km/h
Temperatur: 24°C
Daggpunkt: 15°C
Luftfuktighet: 57%
Barometer: 1018 hPa
Moln: Några få moln
Sikt: 10 km
Molninformation: Några få moln 1219 m
2022/05/17 14:55 EHAM 171455Z 05008KT 010V090 9999 FEW040 24/15 Q1018 NOSIG
Några få moln
Några få moln
  Visa detaljer för Amsterdam (Schiphol)
Avstånd från stationen: SV 1044kmEGLL - London (Heathrow)
Uppdaterad: 2022-05-17 16:50
 Vind från SSO
Vind: SSO 24 km/h
Temperatur: 26°C
Daggpunkt: 9°C
Luftfuktighet: 34%
Barometer: 1016 hPa
Moln: Klart
Sikt: 10 km
2022/05/17 14:50 EGLL 171450Z AUTO 16013KT 9999 NCD 26/09 Q1016
Klart
Klart
  Visa detaljer för London (Heathrow)
Avstånd från stationen: SV 1132kmLFPG - Paris (Charles de Gaulle)
Uppdaterad: 2022-05-17 16:30
 Vind från SSO
Vind: SSO 19 km/h
Temperatur: 28°C
Värmeindex: 27°C
Daggpunkt: 13°C
Luftfuktighet: 40%
Barometer: 1018 hPa
Summering: Klart
Sikt: mer än 10 km
2022/05/17 14:30 LFPG 171430Z 16010KT 120V200 CAVOK 28/13 Q1018 NOSIG
Klart
Klart
  Visa detaljer för Paris (Charles de Gaulle)
Avstånd från stationen: SSV 1142kmLSZH - Zürich Airport
Uppdaterad: 2022-05-17 16:50
 Vind från ONO
Vind: ONO 9 km/h
Temperatur: 25°C
Daggpunkt: 10°C
Luftfuktighet: 39%
Barometer: 1020 hPa
Moln: Några få moln
Sikt: 10 km
Molninformation: Några få moln 1829 m
2022/05/17 14:50 LSZH 171450Z 06005KT 010V140 9999 FEW060 25/10 Q1020 NOSIG
Några få moln
Några få moln
  Visa detaljer för Zürich Airport
Avstånd från stationen: S 1749kmLIRF - Rome Airport (Fiumicino - Leonardo da Vinci)
Uppdaterad: 2022-05-17 16:50
 Vind från V
Vind: V 20 km/h
Temperatur: 24°C
Daggpunkt: 14°C
Luftfuktighet: 54%
Barometer: 1017 hPa
Summering: Klart
Sikt: mer än 10 km
2022/05/17 14:50 LIRF 171450Z 28011KT 250V310 CAVOK 24/14 Q1017 NOSIG
Klart
Klart
  Visa detaljer för Rome Airport (Fiumicino - Leonardo da Vinci)
Avstånd från stationen: SO 2679kmLTAI - Antalya
Uppdaterad: 2022-05-17 16:50
 Vind från OSO
Vind: OSO 11 km/h
Temperatur: 24°C
Daggpunkt: 15°C
Luftfuktighet: 57%
Barometer: 1012 hPa
Moln: Några få moln
Sikt: 10 km
Molninformation: Några få moln 610 m
2022/05/17 14:50 LTAI 171450Z 12006KT 9999 FEW020CB 24/15 Q1012 NOSIG
Några få moln
Några få moln
  Visa detaljer för Antalya
Avstånd från stationen: VSV 6074kmKJFK - New Your (JFK)
Uppdaterad: 2022-05-17 16:51
 Vind från SV
Vind: SV 28 km/h
Temperatur: 21°C
Daggpunkt: 11°C
Luftfuktighet: 53%
Barometer: 1008.5 hPa
Moln: Några få moln
Sikt: 16 km
Molninformation: Några få moln 1524 m
2022/05/17 14:51 KJFK 171451Z 23015KT 10SM FEW050 21/11 A2978 RMK AO2 SLP084 T02060106 58005
Några få moln
Några få moln
  Visa detaljer för New Your (JFK)
Avstånd från stationen: VSV 8848kmKLAX - Los Angeles International Airport
Uppdaterad: 2022-05-17 16:53
 Vind från O
Vind: O 9 km/h
Temperatur: 17°C
Daggpunkt: 12°C
Luftfuktighet: 73%
Barometer: 1015.6 hPa
Moln: Genommulet
Sikt: 13 km
Molninformation: Några få moln 274 m
Genommulet 549 m
2022/05/17 14:53 KLAX 171453Z 10005KT 8SM FEW009 OVC018 17/12 A2999 RMK AO2 SLP153 T01670117 53014
Genommulet
Genommulet
  Visa detaljer för Los Angeles International Airport
Avstånd från stationen: SO 4968kmOMDB - Dubai International Airport
Uppdaterad: 2022-05-17 17:00
 Vind från VNV
Vind: VNV 11 km/h
Temperatur: 31°C
Värmeindex: 35°C
Daggpunkt: 22°C
Luftfuktighet: 59%
Barometer: 1002 hPa
Summering: Widespread Dust
Moln: Delvis molnigt
Sikt: 3 km
2022/05/17 15:00 OMDB 171500Z 29006KT 250V310 3000 DU NSC 31/22 Q1002 TEMPO 1500
Widespread dust, Delvis molnigt
Widespread dust
Delvis molnigt
  Visa detaljer för Dubai International Airport
Avstånd från stationen: OSO 8570kmRJTT - Tokyo International Airport
Uppdaterad: 2022-05-17 16:30
 Vind från varierande
Vind: varierande 7 km/h
Moln: Några få moln
Sikt: 10 km
Molninformation: Några få moln 457 m
2022/05/17 14:30 RJTT 171430Z VRB04KT 9999 FEW015 BKN/// 16/15 Q1017 NOSIG RMK 1CU015 A3005
Några få moln
Några få moln
  Visa detaljer för Tokyo International Airport
Avstånd från stationen: OSO 7125kmZBAA - Peking (Beijing Capital)
Uppdaterad: 2022-05-17 16:30
 Vind från NNV
Vind: NNV 4 km/h
Temperatur: 16°C
Daggpunkt: 12°C
Luftfuktighet: 77%
Barometer: 1006 hPa
Summering: Klart
Sikt: mer än 10 km
2022/05/17 14:30 ZBAA 171430Z 34001MPS CAVOK 16/12 Q1006 NOSIG
Klart
Klart
  Visa detaljer för Peking (Beijing Capital)
VÄDER KURIOSA -  ExtremesA total of 1,224.5 inches of snow fell over a 12-month period from February 1971 to February 1972 at Paradise, Mt. Ranier, in Washington State.